sensor_id;sensor_type;location;lat;lon;timestamp;P1;durP1;ratioP1;P2;durP2;ratioP2
51810;SDS011;52468;40.116;18.296;2023-03-01T00:01:22;17.13;;;7.27;;
51810;SDS011;52468;40.116;18.296;2023-03-01T00:03:52;17.80;;;6.90;;
51810;SDS011;52468;40.116;18.296;2023-03-01T00:06:21;19.20;;;6.53;;
51810;SDS011;52468;40.116;18.296;2023-03-01T00:08:49;16.47;;;6.37;;
51810;SDS011;52468;40.116;18.296;2023-03-01T00:11:24;19.73;;;6.13;;
51810;SDS011;52468;40.116;18.296;2023-03-01T00:13:56;30.80;;;7.80;;
51810;SDS011;52468;40.116;18.296;2023-03-01T00:16:29;13.73;;;6.57;;
51810;SDS011;52468;40.116;18.296;2023-03-01T00:19:00;20.53;;;8.37;;
51810;SDS011;52468;40.116;18.296;2023-03-01T00:21:28;16.30;;;6.20;;
51810;SDS011;52468;40.116;18.296;2023-03-01T00:23:56;21.13;;;7.50;;
51810;SDS011;52468;40.116;18.296;2023-03-01T00:26:25;21.57;;;7.63;;
51810;SDS011;52468;40.116;18.296;2023-03-01T00:28:53;17.33;;;7.77;;
51810;SDS011;52468;40.116;18.296;2023-03-01T00:31:28;27.90;;;9.10;;
51810;SDS011;52468;40.116;18.296;2023-03-01T00:34:01;25.58;;;6.95;;
51810;SDS011;52468;40.116;18.296;2023-03-01T00:36:32;30.37;;;7.23;;
51810;SDS011;52468;40.116;18.296;2023-03-01T00:39:03;26.10;;;7.40;;
51810;SDS011;52468;40.116;18.296;2023-03-01T00:41:32;21.37;;;8.80;;
51810;SDS011;52468;40.116;18.296;2023-03-01T00:44:02;25.90;;;10.07;;
51810;SDS011;52468;40.116;18.296;2023-03-01T00:46:30;20.83;;;8.33;;
51810;SDS011;52468;40.116;18.296;2023-03-01T00:48:58;23.40;;;7.93;;
51810;SDS011;52468;40.116;18.296;2023-03-01T00:51:29;21.63;;;7.67;;
51810;SDS011;52468;40.116;18.296;2023-03-01T00:53:58;14.43;;;7.10;;
51810;SDS011;52468;40.116;18.296;2023-03-01T00:56:28;27.87;;;7.27;;
51810;SDS011;52468;40.116;18.296;2023-03-01T00:58:57;24.83;;;7.30;;
51810;SDS011;52468;40.116;18.296;2023-03-01T01:01:26;24.27;;;6.63;;
51810;SDS011;52468;40.116;18.296;2023-03-01T01:03:57;26.47;;;6.97;;
51810;SDS011;52468;40.116;18.296;2023-03-01T01:06:31;25.93;;;8.00;;
51810;SDS011;52468;40.116;18.296;2023-03-01T01:09:02;19.10;;;7.40;;
51810;SDS011;52468;40.116;18.296;2023-03-01T01:11:31;23.10;;;7.53;;
51810;SDS011;52468;40.116;18.296;2023-03-01T01:14:02;29.57;;;7.93;;
51810;SDS011;52468;40.116;18.296;2023-03-01T01:16:30;22.07;;;8.90;;
51810;SDS011;52468;40.116;18.296;2023-03-01T01:18:58;28.53;;;8.07;;
51810;SDS011;52468;40.116;18.296;2023-03-01T01:21:27;29.40;;;9.27;;
51810;SDS011;52468;40.116;18.296;2023-03-01T01:23:56;31.57;;;9.70;;
51810;SDS011;52468;40.116;18.296;2023-03-01T01:26:25;20.77;;;8.17;;
51810;SDS011;52468;40.116;18.296;2023-03-01T01:28:55;28.47;;;10.20;;
51810;SDS011;52468;40.116;18.296;2023-03-01T01:31:24;22.47;;;9.37;;
51810;SDS011;52468;40.116;18.296;2023-03-01T01:33:53;18.67;;;9.77;;
51810;SDS011;52468;40.116;18.296;2023-03-01T01:36:23;19.40;;;7.93;;
51810;SDS011;52468;40.116;18.296;2023-03-01T01:38:51;22.83;;;10.13;;
51810;SDS011;52468;40.116;18.296;2023-03-01T01:41:20;18.60;;;9.10;;
51810;SDS011;52468;40.116;18.296;2023-03-01T01:43:49;21.03;;;9.70;;
51810;SDS011;52468;40.116;18.296;2023-03-01T01:46:47;21.02;;;8.23;;
51810;SDS011;52468;40.116;18.296;2023-03-01T01:51:51;28.50;;;10.10;;
51810;SDS011;52468;40.116;18.296;2023-03-01T01:54:32;22.67;;;9.10;;
51810;SDS011;52468;40.116;18.296;2023-03-01T01:57:06;29.17;;;9.20;;
51810;SDS011;52468;40.116;18.296;2023-03-01T01:59:38;25.42;;;9.52;;
51810;SDS011;52468;40.116;18.296;2023-03-01T02:02:08;24.37;;;8.57;;
51810;SDS011;52468;40.116;18.296;2023-03-01T02:04:36;22.97;;;9.90;;
51810;SDS011;52468;40.116;18.296;2023-03-01T02:07:09;31.00;;;10.33;;
51810;SDS011;52468;40.116;18.296;2023-03-01T02:09:49;28.87;;;10.20;;
51810;SDS011;52468;40.116;18.296;2023-03-01T02:12:20;28.90;;;9.20;;
51810;SDS011;52468;40.116;18.296;2023-03-01T02:14:51;25.83;;;10.60;;
51810;SDS011;52468;40.116;18.296;2023-03-01T02:17:18;30.33;;;9.87;;
51810;SDS011;52468;40.116;18.296;2023-03-01T02:20:00;30.77;;;11.07;;
51810;SDS011;52468;40.116;18.296;2023-03-01T02:22:35;20.23;;;10.17;;
51810;SDS011;52468;40.116;18.296;2023-03-01T02:30:46;42.00;;;14.73;;
51810;SDS011;52468;40.116;18.296;2023-03-01T02:33:37;29.13;;;14.00;;
51810;SDS011;52468;40.116;18.296;2023-03-01T02:36:07;40.60;;;17.43;;
51810;SDS011;52468;40.116;18.296;2023-03-01T02:38:39;49.03;;;18.87;;
51810;SDS011;52468;40.116;18.296;2023-03-01T02:41:08;53.87;;;18.90;;
51810;SDS011;52468;40.116;18.296;2023-03-01T02:43:40;54.70;;;21.07;;
51810;SDS011;52468;40.116;18.296;2023-03-01T02:46:16;50.13;;;20.23;;
51810;SDS011;52468;40.116;18.296;2023-03-01T02:48:48;60.37;;;22.17;;
51810;SDS011;52468;40.116;18.296;2023-03-01T02:54:25;50.70;;;21.17;;
51810;SDS011;52468;40.116;18.296;2023-03-01T02:57:06;54.10;;;24.50;;
51810;SDS011;52468;40.116;18.296;2023-03-01T02:59:35;51.00;;;23.97;;
51810;SDS011;52468;40.116;18.296;2023-03-01T03:02:20;64.60;;;24.27;;
51810;SDS011;52468;40.116;18.296;2023-03-01T03:05:24;53.28;;;24.00;;
51810;SDS011;52468;40.116;18.296;2023-03-01T03:07:56;55.05;;;24.70;;
51810;SDS011;52468;40.116;18.296;2023-03-01T03:10:37;55.17;;;22.00;;
51810;SDS011;52468;40.116;18.296;2023-03-01T03:13:08;60.53;;;27.20;;
51810;SDS011;52468;40.116;18.296;2023-03-01T03:15:38;46.17;;;23.33;;
51810;SDS011;52468;40.116;18.296;2023-03-01T03:18:08;58.37;;;25.70;;
51810;SDS011;52468;40.116;18.296;2023-03-01T03:20:40;54.30;;;21.83;;
51810;SDS011;52468;40.116;18.296;2023-03-01T03:23:09;58.53;;;22.60;;
51810;SDS011;52468;40.116;18.296;2023-03-01T03:25:37;61.00;;;23.90;;
51810;SDS011;52468;40.116;18.296;2023-03-01T03:28:06;50.50;;;23.97;;
51810;SDS011;52468;40.116;18.296;2023-03-01T03:30:38;58.80;;;25.03;;
51810;SDS011;52468;40.116;18.296;2023-03-01T03:33:08;56.07;;;26.10;;
51810;SDS011;52468;40.116;18.296;2023-03-01T03:35:41;52.37;;;26.03;;
51810;SDS011;52468;40.116;18.296;2023-03-01T03:38:11;53.10;;;24.47;;
51810;SDS011;52468;40.116;18.296;2023-03-01T03:40:44;61.77;;;26.23;;
51810;SDS011;52468;40.116;18.296;2023-03-01T03:43:14;61.67;;;26.33;;
51810;SDS011;52468;40.116;18.296;2023-03-01T03:45:47;60.00;;;26.73;;
51810;SDS011;52468;40.116;18.296;2023-03-01T03:48:18;61.63;;;26.45;;
51810;SDS011;52468;40.116;18.296;2023-03-01T03:50:47;63.33;;;26.93;;
51810;SDS011;52468;40.116;18.296;2023-03-01T03:53:17;61.03;;;23.30;;
51810;SDS011;52468;40.116;18.296;2023-03-01T03:55:46;65.33;;;29.07;;
51810;SDS011;52468;40.116;18.296;2023-03-01T03:58:16;61.20;;;24.70;;
51810;SDS011;52468;40.116;18.296;2023-03-01T04:00:47;52.93;;;27.90;;
51810;SDS011;52468;40.116;18.296;2023-03-01T04:03:17;64.07;;;28.57;;
51810;SDS011;52468;40.116;18.296;2023-03-01T04:05:47;65.43;;;30.50;;
51810;SDS011;52468;40.116;18.296;2023-03-01T04:08:17;61.10;;;29.40;;
51810;SDS011;52468;40.116;18.296;2023-03-01T04:10:50;65.63;;;28.63;;
51810;SDS011;52468;40.116;18.296;2023-03-01T04:13:20;61.90;;;29.43;;
51810;SDS011;52468;40.116;18.296;2023-03-01T04:15:49;72.67;;;31.20;;
51810;SDS011;52468;40.116;18.296;2023-03-01T04:18:19;77.27;;;32.80;;
51810;SDS011;52468;40.116;18.296;2023-03-01T04:20:48;66.97;;;29.80;;
51810;SDS011;52468;40.116;18.296;2023-03-01T04:23:19;74.07;;;33.47;;
51810;SDS011;52468;40.116;18.296;2023-03-01T04:25:49;63.37;;;30.90;;
51810;SDS011;52468;40.116;18.296;2023-03-01T04:28:25;72.80;;;32.43;;
51810;SDS011;52468;40.116;18.296;2023-03-01T04:31:03;62.43;;;30.93;;
51810;SDS011;52468;40.116;18.296;2023-03-01T04:33:47;70.43;;;31.85;;
51810;SDS011;52468;40.116;18.296;2023-03-01T04:36:18;65.32;;;33.08;;
51810;SDS011;52468;40.116;18.296;2023-03-01T04:38:48;68.87;;;32.20;;
51810;SDS011;52468;40.116;18.296;2023-03-01T04:41:16;72.43;;;34.10;;
51810;SDS011;52468;40.116;18.296;2023-03-01T04:43:45;60.63;;;28.77;;
51810;SDS011;52468;40.116;18.296;2023-03-01T04:46:15;69.27;;;30.53;;
51810;SDS011;52468;40.116;18.296;2023-03-01T04:48:45;69.30;;;32.43;;
51810;SDS011;52468;40.116;18.296;2023-03-01T04:51:14;81.03;;;34.30;;
51810;SDS011;52468;40.116;18.296;2023-03-01T04:53:43;80.17;;;32.53;;
51810;SDS011;52468;40.116;18.296;2023-03-01T04:56:11;70.73;;;31.97;;
51810;SDS011;52468;40.116;18.296;2023-03-01T04:58:41;69.97;;;32.30;;
51810;SDS011;52468;40.116;18.296;2023-03-01T05:01:12;66.67;;;32.63;;
51810;SDS011;52468;40.116;18.296;2023-03-01T05:03:46;80.90;;;35.60;;
51810;SDS011;52468;40.116;18.296;2023-03-01T05:06:16;74.63;;;35.23;;
51810;SDS011;52468;40.116;18.296;2023-03-01T05:08:45;69.87;;;29.77;;
51810;SDS011;52468;40.116;18.296;2023-03-01T05:11:13;65.60;;;32.00;;
51810;SDS011;52468;40.116;18.296;2023-03-01T05:13:41;67.70;;;32.23;;
51810;SDS011;52468;40.116;18.296;2023-03-01T05:16:10;72.27;;;32.90;;
51810;SDS011;52468;40.116;18.296;2023-03-01T05:18:41;69.47;;;33.67;;
51810;SDS011;52468;40.116;18.296;2023-03-01T05:21:10;65.77;;;34.73;;
51810;SDS011;52468;40.116;18.296;2023-03-01T05:23:40;77.30;;;32.90;;
51810;SDS011;52468;40.116;18.296;2023-03-01T05:26:08;69.43;;;32.17;;
51810;SDS011;52468;40.116;18.296;2023-03-01T05:28:51;76.70;;;33.67;;
51810;SDS011;52468;40.116;18.296;2023-03-01T05:31:23;75.87;;;32.60;;
51810;SDS011;52468;40.116;18.296;2023-03-01T05:33:51;78.63;;;34.40;;
51810;SDS011;52468;40.116;18.296;2023-03-01T05:36:20;70.07;;;36.63;;
51810;SDS011;52468;40.116;18.296;2023-03-01T05:38:47;64.77;;;31.80;;
51810;SDS011;52468;40.116;18.296;2023-03-01T05:41:15;82.07;;;33.97;;
51810;SDS011;52468;40.116;18.296;2023-03-01T05:43:44;77.33;;;34.13;;
51810;SDS011;52468;40.116;18.296;2023-03-01T05:46:12;74.63;;;36.33;;
51810;SDS011;52468;40.116;18.296;2023-03-01T05:48:42;69.63;;;34.13;;
51810;SDS011;52468;40.116;18.296;2023-03-01T05:51:10;74.17;;;33.87;;
51810;SDS011;52468;40.116;18.296;2023-03-01T05:53:39;69.27;;;35.20;;
51810;SDS011;52468;40.116;18.296;2023-03-01T05:56:07;70.33;;;36.40;;
51810;SDS011;52468;40.116;18.296;2023-03-01T05:58:35;75.47;;;31.43;;
51810;SDS011;52468;40.116;18.296;2023-03-01T06:01:03;72.43;;;35.17;;
51810;SDS011;52468;40.116;18.296;2023-03-01T06:03:31;85.23;;;33.90;;
51810;SDS011;52468;40.116;18.296;2023-03-01T06:05:58;70.50;;;32.43;;
51810;SDS011;52468;40.116;18.296;2023-03-01T06:08:26;70.30;;;37.53;;
51810;SDS011;52468;40.116;18.296;2023-03-01T06:10:54;76.40;;;35.93;;
51810;SDS011;52468;40.116;18.296;2023-03-01T06:13:23;64.37;;;32.20;;
51810;SDS011;52468;40.116;18.296;2023-03-01T06:15:51;67.03;;;29.53;;
51810;SDS011;52468;40.116;18.296;2023-03-01T06:18:19;69.13;;;31.97;;
51810;SDS011;52468;40.116;18.296;2023-03-01T06:20:54;72.07;;;31.50;;
51810;SDS011;52468;40.116;18.296;2023-03-01T06:23:23;72.73;;;33.13;;
51810;SDS011;52468;40.116;18.296;2023-03-01T06:25:51;69.33;;;35.77;;
51810;SDS011;52468;40.116;18.296;2023-03-01T06:28:20;67.87;;;31.63;;
51810;SDS011;52468;40.116;18.296;2023-03-01T06:30:49;75.07;;;32.40;;
51810;SDS011;52468;40.116;18.296;2023-03-01T06:33:18;65.90;;;31.43;;
51810;SDS011;52468;40.116;18.296;2023-03-01T06:35:51;63.63;;;30.30;;
51810;SDS011;52468;40.116;18.296;2023-03-01T06:38:23;51.07;;;26.93;;
51810;SDS011;52468;40.116;18.296;2023-03-01T06:40:52;64.20;;;30.20;;
51810;SDS011;52468;40.116;18.296;2023-03-01T06:43:21;60.83;;;29.13;;
51810;SDS011;52468;40.116;18.296;2023-03-01T06:45:50;66.60;;;27.77;;
51810;SDS011;52468;40.116;18.296;2023-03-01T06:48:18;65.20;;;27.73;;
51810;SDS011;52468;40.116;18.296;2023-03-01T06:50:46;52.70;;;25.37;;
51810;SDS011;52468;40.116;18.296;2023-03-01T06:53:14;55.17;;;26.67;;
51810;SDS011;52468;40.116;18.296;2023-03-01T06:55:41;53.27;;;25.37;;
51810;SDS011;52468;40.116;18.296;2023-03-01T06:58:09;47.40;;;26.53;;
51810;SDS011;52468;40.116;18.296;2023-03-01T07:00:38;43.10;;;23.40;;
51810;SDS011;52468;40.116;18.296;2023-03-01T07:03:08;45.73;;;23.37;;
51810;SDS011;52468;40.116;18.296;2023-03-01T07:05:36;53.80;;;22.90;;
51810;SDS011;52468;40.116;18.296;2023-03-01T07:08:03;46.37;;;24.17;;
51810;SDS011;52468;40.116;18.296;2023-03-01T07:10:32;43.33;;;24.30;;
51810;SDS011;52468;40.116;18.296;2023-03-01T07:12:59;48.97;;;22.53;;
51810;SDS011;52468;40.116;18.296;2023-03-01T07:15:27;51.27;;;26.77;;
51810;SDS011;52468;40.116;18.296;2023-03-01T07:17:55;56.37;;;23.60;;
51810;SDS011;52468;40.116;18.296;2023-03-01T07:20:24;44.43;;;24.17;;
51810;SDS011;52468;40.116;18.296;2023-03-01T07:22:55;43.47;;;22.07;;
51810;SDS011;52468;40.116;18.296;2023-03-01T07:25:25;48.53;;;22.27;;
51810;SDS011;52468;40.116;18.296;2023-03-01T07:27:53;36.23;;;20.83;;
51810;SDS011;52468;40.116;18.296;2023-03-01T07:30:21;57.13;;;25.67;;
51810;SDS011;52468;40.116;18.296;2023-03-01T07:32:53;53.13;;;21.90;;
51810;SDS011;52468;40.116;18.296;2023-03-01T07:35:27;45.73;;;22.27;;
51810;SDS011;52468;40.116;18.296;2023-03-01T07:37:55;50.63;;;26.00;;
51810;SDS011;52468;40.116;18.296;2023-03-01T07:40:23;45.43;;;20.00;;
51810;SDS011;52468;40.116;18.296;2023-03-01T07:42:55;49.03;;;23.40;;
51810;SDS011;52468;40.116;18.296;2023-03-01T07:45:26;50.23;;;23.97;;
51810;SDS011;52468;40.116;18.296;2023-03-01T07:47:54;48.50;;;22.40;;
51810;SDS011;52468;40.116;18.296;2023-03-01T07:50:22;44.07;;;22.17;;
51810;SDS011;52468;40.116;18.296;2023-03-01T07:52:50;43.67;;;24.23;;
51810;SDS011;52468;40.116;18.296;2023-03-01T07:55:18;45.53;;;24.13;;
51810;SDS011;52468;40.116;18.296;2023-03-01T07:57:47;56.33;;;26.53;;
51810;SDS011;52468;40.116;18.296;2023-03-01T08:00:14;52.43;;;24.43;;
51810;SDS011;52468;40.116;18.296;2023-03-01T08:02:42;46.07;;;21.63;;
51810;SDS011;52468;40.116;18.296;2023-03-01T08:05:10;54.70;;;25.83;;
51810;SDS011;52468;40.116;18.296;2023-03-01T08:07:38;43.60;;;24.13;;
51810;SDS011;52468;40.116;18.296;2023-03-01T08:10:06;41.03;;;20.97;;
51810;SDS011;52468;40.116;18.296;2023-03-01T08:12:35;46.27;;;20.23;;
51810;SDS011;52468;40.116;18.296;2023-03-01T08:15:03;52.03;;;21.90;;
51810;SDS011;52468;40.116;18.296;2023-03-01T08:17:31;38.90;;;19.87;;
51810;SDS011;52468;40.116;18.296;2023-03-01T08:20:00;38.77;;;20.03;;
51810;SDS011;52468;40.116;18.296;2023-03-01T08:22:28;48.57;;;19.93;;
51810;SDS011;52468;40.116;18.296;2023-03-01T08:24:56;35.87;;;16.47;;
51810;SDS011;52468;40.116;18.296;2023-03-01T08:27:24;40.80;;;17.60;;
51810;SDS011;52468;40.116;18.296;2023-03-01T08:29:51;38.57;;;17.37;;
51810;SDS011;52468;40.116;18.296;2023-03-01T08:32:19;41.63;;;18.13;;
51810;SDS011;52468;40.116;18.296;2023-03-01T08:34:47;37.10;;;13.40;;
51810;SDS011;52468;40.116;18.296;2023-03-01T08:37:15;33.73;;;15.37;;
51810;SDS011;52468;40.116;18.296;2023-03-01T08:39:43;40.00;;;15.23;;
51810;SDS011;52468;40.116;18.296;2023-03-01T08:42:11;36.67;;;15.63;;
51810;SDS011;52468;40.116;18.296;2023-03-01T08:44:39;35.10;;;13.67;;
51810;SDS011;52468;40.116;18.296;2023-03-01T08:47:06;37.73;;;13.97;;
51810;SDS011;52468;40.116;18.296;2023-03-01T08:49:34;28.77;;;12.40;;
51810;SDS011;52468;40.116;18.296;2023-03-01T08:52:02;33.27;;;13.07;;
51810;SDS011;52468;40.116;18.296;2023-03-01T08:54:30;36.67;;;13.63;;
51810;SDS011;52468;40.116;18.296;2023-03-01T08:56:58;33.57;;;12.70;;
51810;SDS011;52468;40.116;18.296;2023-03-01T08:59:29;37.40;;;12.00;;
51810;SDS011;52468;40.116;18.296;2023-03-01T09:01:57;34.53;;;13.77;;
51810;SDS011;52468;40.116;18.296;2023-03-01T09:04:25;24.83;;;10.10;;
51810;SDS011;52468;40.116;18.296;2023-03-01T09:06:53;31.40;;;12.97;;
51810;SDS011;52468;40.116;18.296;2023-03-01T09:09:21;36.67;;;11.73;;
51810;SDS011;52468;40.116;18.296;2023-03-01T09:11:48;29.60;;;12.73;;
51810;SDS011;52468;40.116;18.296;2023-03-01T09:14:18;37.27;;;11.80;;
51810;SDS011;52468;40.116;18.296;2023-03-01T09:16:46;38.70;;;12.00;;
51810;SDS011;52468;40.116;18.296;2023-03-01T09:19:14;18.77;;;9.63;;
51810;SDS011;52468;40.116;18.296;2023-03-01T09:21:42;37.70;;;10.47;;
51810;SDS011;52468;40.116;18.296;2023-03-01T09:24:20;36.00;;;11.10;;
51810;SDS011;52468;40.116;18.296;2023-03-01T09:26:49;33.90;;;12.27;;
51810;SDS011;52468;40.116;18.296;2023-03-01T09:29:20;27.57;;;10.37;;
51810;SDS011;52468;40.116;18.296;2023-03-01T09:31:48;34.33;;;10.27;;
51810;SDS011;52468;40.116;18.296;2023-03-01T09:34:16;25.93;;;10.47;;
51810;SDS011;52468;40.116;18.296;2023-03-01T09:36:50;20.50;;;9.03;;
51810;SDS011;52468;40.116;18.296;2023-03-01T09:39:18;29.47;;;10.97;;
51810;SDS011;52468;40.116;18.296;2023-03-01T09:44:42;29.87;;;10.83;;
51810;SDS011;52468;40.116;18.296;2023-03-01T09:47:23;24.83;;;9.37;;
51810;SDS011;52468;40.116;18.296;2023-03-01T09:49:58;31.57;;;9.53;;
51810;SDS011;52468;40.116;18.296;2023-03-01T09:52:42;30.93;;;8.77;;
51810;SDS011;52468;40.116;18.296;2023-03-01T09:55:37;30.63;;;8.97;;
51810;SDS011;52468;40.116;18.296;2023-03-01T10:04:00;30.90;;;8.23;;
51810;SDS011;52468;40.116;18.296;2023-03-01T10:09:38;28.13;;;9.53;;
51810;SDS011;52468;40.116;18.296;2023-03-01T10:12:12;36.23;;;9.43;;
51810;SDS011;52468;40.116;18.296;2023-03-01T10:14:48;29.00;;;9.93;;
51810;SDS011;52468;40.116;18.296;2023-03-01T10:20:18;25.57;;;7.23;;
51810;SDS011;52468;40.116;18.296;2023-03-01T10:22:48;32.03;;;7.97;;
51810;SDS011;52468;40.116;18.296;2023-03-01T10:28:17;31.13;;;8.40;;
51810;SDS011;52468;40.116;18.296;2023-03-01T10:30:58;29.10;;;8.70;;
51810;SDS011;52468;40.116;18.296;2023-03-01T10:33:28;27.40;;;8.13;;
51810;SDS011;52468;40.116;18.296;2023-03-01T10:35:59;39.63;;;10.00;;
51810;SDS011;52468;40.116;18.296;2023-03-01T10:38:27;30.93;;;8.40;;
51810;SDS011;52468;40.116;18.296;2023-03-01T10:40:59;33.23;;;9.00;;
51810;SDS011;52468;40.116;18.296;2023-03-01T10:44:09;34.90;;;8.77;;
51810;SDS011;52468;40.116;18.296;2023-03-01T10:51:39;35.33;;;8.47;;
51810;SDS011;52468;40.116;18.296;2023-03-01T10:56:56;32.53;;;8.77;;
51810;SDS011;52468;40.116;18.296;2023-03-01T10:59:30;30.27;;;8.03;;
51810;SDS011;52468;40.116;18.296;2023-03-01T11:07:29;42.77;;;9.23;;
51810;SDS011;52468;40.116;18.296;2023-03-01T11:09:57;30.07;;;8.87;;
51810;SDS011;52468;40.116;18.296;2023-03-01T11:12:25;26.50;;;8.47;;
51810;SDS011;52468;40.116;18.296;2023-03-01T11:14:56;26.80;;;8.17;;
51810;SDS011;52468;40.116;18.296;2023-03-01T11:17:27;30.30;;;8.73;;
51810;SDS011;52468;40.116;18.296;2023-03-01T11:22:44;24.53;;;8.23;;
51810;SDS011;52468;40.116;18.296;2023-03-01T11:25:13;28.98;;;8.50;;
51810;SDS011;52468;40.116;18.296;2023-03-01T11:27:43;23.00;;;7.77;;
51810;SDS011;52468;40.116;18.296;2023-03-01T11:30:15;40.47;;;9.43;;
51810;SDS011;52468;40.116;18.296;2023-03-01T11:32:47;42.53;;;11.05;;
51810;SDS011;52468;40.116;18.296;2023-03-01T11:35:30;27.37;;;8.33;;
51810;SDS011;52468;40.116;18.296;2023-03-01T11:40:33;34.67;;;7.63;;
51810;SDS011;52468;40.116;18.296;2023-03-01T11:43:11;40.33;;;7.47;;
51810;SDS011;52468;40.116;18.296;2023-03-01T11:51:49;22.43;;;6.83;;
51810;SDS011;52468;40.116;18.296;2023-03-01T11:54:34;34.33;;;8.10;;
51810;SDS011;52468;40.116;18.296;2023-03-01T12:09:17;28.67;;;8.90;;
51810;SDS011;52468;40.116;18.296;2023-03-01T12:12:03;30.47;;;7.73;;
51810;SDS011;52468;40.116;18.296;2023-03-01T12:20:12;37.93;;;8.63;;
51810;SDS011;52468;40.116;18.296;2023-03-01T12:23:00;29.50;;;7.70;;
51810;SDS011;52468;40.116;18.296;2023-03-01T12:25:51;29.27;;;8.87;;
51810;SDS011;52468;40.116;18.296;2023-03-01T12:45:14;34.37;;;8.77;;
51810;SDS011;52468;40.116;18.296;2023-03-01T12:50:42;34.37;;;8.73;;
51810;SDS011;52468;40.116;18.296;2023-03-01T12:53:39;33.43;;;7.67;;
51810;SDS011;52468;40.116;18.296;2023-03-01T12:56:19;26.47;;;7.40;;
51810;SDS011;52468;40.116;18.296;2023-03-01T13:01:56;27.10;;;7.73;;
51810;SDS011;52468;40.116;18.296;2023-03-01T13:07:39;16.52;;;5.57;;
51810;SDS011;52468;40.116;18.296;2023-03-01T13:15:36;19.47;;;6.53;;
51810;SDS011;52468;40.116;18.296;2023-03-01T13:33:43;27.93;;;7.77;;
51810;SDS011;52468;40.116;18.296;2023-03-01T13:38:58;28.67;;;7.00;;
51810;SDS011;52468;40.116;18.296;2023-03-01T13:44:29;27.53;;;5.70;;
51810;SDS011;52468;40.116;18.296;2023-03-01T13:47:03;28.67;;;6.30;;
51810;SDS011;52468;40.116;18.296;2023-03-01T13:49:47;26.07;;;7.73;;
51810;SDS011;52468;40.116;18.296;2023-03-01T13:57:53;19.00;;;6.73;;
51810;SDS011;52468;40.116;18.296;2023-03-01T14:00:37;24.57;;;6.50;;
51810;SDS011;52468;40.116;18.296;2023-03-01T14:03:19;25.83;;;6.23;;
51810;SDS011;52468;40.116;18.296;2023-03-01T14:06:06;41.83;;;6.13;;
51810;SDS011;52468;40.116;18.296;2023-03-01T14:08:48;27.63;;;5.80;;
51810;SDS011;52468;40.116;18.296;2023-03-01T14:11:25;25.70;;;6.63;;
51810;SDS011;52468;40.116;18.296;2023-03-01T14:14:38;26.43;;;5.70;;
51810;SDS011;52468;40.116;18.296;2023-03-01T14:19:58;27.57;;;5.57;;
51810;SDS011;52468;40.116;18.296;2023-03-01T14:22:34;28.47;;;12.40;;
51810;SDS011;52468;40.116;18.296;2023-03-01T14:25:16;23.43;;;7.53;;
51810;SDS011;52468;40.116;18.296;2023-03-01T14:27:51;27.03;;;7.73;;
51810;SDS011;52468;40.116;18.296;2023-03-01T14:30:38;22.47;;;6.53;;
51810;SDS011;52468;40.116;18.296;2023-03-01T14:36:09;31.40;;;13.00;;
51810;SDS011;52468;40.116;18.296;2023-03-01T14:38:39;37.17;;;12.40;;
51810;SDS011;52468;40.116;18.296;2023-03-01T14:41:15;30.13;;;8.43;;
51810;SDS011;52468;40.116;18.296;2023-03-01T14:43:47;26.57;;;8.40;;
51810;SDS011;52468;40.116;18.296;2023-03-01T14:46:20;23.93;;;8.00;;
51810;SDS011;52468;40.116;18.296;2023-03-01T14:48:49;18.27;;;4.97;;
51810;SDS011;52468;40.116;18.296;2023-03-01T14:51:23;17.07;;;4.77;;
51810;SDS011;52468;40.116;18.296;2023-03-01T14:53:51;18.07;;;6.40;;
51810;SDS011;52468;40.116;18.296;2023-03-01T14:56:19;20.50;;;5.10;;
51810;SDS011;52468;40.116;18.296;2023-03-01T14:58:52;20.93;;;6.00;;
51810;SDS011;52468;40.116;18.296;2023-03-01T15:01:24;19.47;;;5.60;;
51810;SDS011;52468;40.116;18.296;2023-03-01T15:03:53;18.60;;;6.30;;
51810;SDS011;52468;40.116;18.296;2023-03-01T15:06:21;19.03;;;5.87;;
51810;SDS011;52468;40.116;18.296;2023-03-01T15:08:52;20.40;;;6.93;;
51810;SDS011;52468;40.116;18.296;2023-03-01T15:11:22;18.30;;;6.73;;
51810;SDS011;52468;40.116;18.296;2023-03-01T15:16:23;14.87;;;4.30;;
51810;SDS011;52468;40.116;18.296;2023-03-01T15:19:00;14.30;;;4.37;;
51810;SDS011;52468;40.116;18.296;2023-03-01T15:21:34;28.43;;;11.57;;
51810;SDS011;52468;40.116;18.296;2023-03-01T15:29:25;15.30;;;4.40;;
51810;SDS011;52468;40.116;18.296;2023-03-01T15:32:01;19.73;;;4.53;;
51810;SDS011;52468;40.116;18.296;2023-03-01T15:34:34;28.33;;;6.40;;
51810;SDS011;52468;40.116;18.296;2023-03-01T15:37:35;13.60;;;5.57;;
51810;SDS011;52468;40.116;18.296;2023-03-01T15:40:21;11.93;;;3.83;;
51810;SDS011;52468;40.116;18.296;2023-03-01T15:43:02;23.02;;;5.25;;
51810;SDS011;52468;40.116;18.296;2023-03-01T15:45:31;17.60;;;6.70;;
51810;SDS011;52468;40.116;18.296;2023-03-01T15:48:14;17.07;;;4.57;;
51810;SDS011;52468;40.116;18.296;2023-03-01T15:50:46;13.57;;;4.33;;
51810;SDS011;52468;40.116;18.296;2023-03-01T15:53:23;9.70;;;4.10;;
51810;SDS011;52468;40.116;18.296;2023-03-01T15:55:53;15.43;;;5.10;;
51810;SDS011;52468;40.116;18.296;2023-03-01T15:58:24;23.70;;;4.57;;
51810;SDS011;52468;40.116;18.296;2023-03-01T16:00:52;13.90;;;4.43;;
51810;SDS011;52468;40.116;18.296;2023-03-01T16:03:27;17.80;;;4.73;;
51810;SDS011;52468;40.116;18.296;2023-03-01T16:05:55;16.37;;;4.47;;
51810;SDS011;52468;40.116;18.296;2023-03-01T16:08:23;16.90;;;5.00;;
51810;SDS011;52468;40.116;18.296;2023-03-01T16:10:51;12.97;;;5.00;;
51810;SDS011;52468;40.116;18.296;2023-03-01T16:13:21;13.40;;;5.63;;
51810;SDS011;52468;40.116;18.296;2023-03-01T16:15:49;21.73;;;7.13;;
51810;SDS011;52468;40.116;18.296;2023-03-01T16:18:17;28.53;;;9.30;;
51810;SDS011;52468;40.116;18.296;2023-03-01T16:20:45;18.47;;;5.90;;
51810;SDS011;52468;40.116;18.296;2023-03-01T16:23:13;18.17;;;5.20;;
51810;SDS011;52468;40.116;18.296;2023-03-01T16:25:42;13.43;;;5.27;;
51810;SDS011;52468;40.116;18.296;2023-03-01T16:28:09;15.00;;;6.43;;
51810;SDS011;52468;40.116;18.296;2023-03-01T16:30:38;17.17;;;4.90;;
51810;SDS011;52468;40.116;18.296;2023-03-01T16:33:08;15.00;;;4.60;;
51810;SDS011;52468;40.116;18.296;2023-03-01T16:35:50;14.65;;;3.50;;
51810;SDS011;52468;40.116;18.296;2023-03-01T16:38:18;16.80;;;4.27;;
51810;SDS011;52468;40.116;18.296;2023-03-01T16:40:47;20.80;;;4.57;;
51810;SDS011;52468;40.116;18.296;2023-03-01T16:43:16;21.60;;;4.77;;
51810;SDS011;52468;40.116;18.296;2023-03-01T16:45:44;15.27;;;3.67;;
51810;SDS011;52468;40.116;18.296;2023-03-01T16:48:13;19.37;;;5.07;;
51810;SDS011;52468;40.116;18.296;2023-03-01T16:50:41;13.47;;;6.23;;
51810;SDS011;52468;40.116;18.296;2023-03-01T16:53:09;21.73;;;6.53;;
51810;SDS011;52468;40.116;18.296;2023-03-01T16:55:37;21.63;;;7.90;;
51810;SDS011;52468;40.116;18.296;2023-03-01T16:58:12;11.87;;;4.63;;
51810;SDS011;52468;40.116;18.296;2023-03-01T17:00:40;12.97;;;3.77;;
51810;SDS011;52468;40.116;18.296;2023-03-01T17:03:08;19.53;;;6.10;;
51810;SDS011;52468;40.116;18.296;2023-03-01T17:05:35;20.33;;;5.87;;